Time;durP1;ratioP1;P1;durP2;ratioP2;P2;SDS_P1;SDS_P2;PMS_P1;PMS_P2;Temp;Humidity;BMP_temperature;BMP_pressure;BME280_temperature;BME280_humidity;BME280_pressure;Samples;Min_cycle;Max_cycle;Signal;HPM_P1;HPM_P2
2023/11/16 00:00:12;;;;;;;1.70;0.82;;;18.40;99.90;;;;;;5011943;28;20022;-43
2023/11/16 00:02:38;;;;;;;2.92;0.70;;;18.30;99.90;;;;;;5011493;28;20026;-44
2023/11/16 00:05:04;;;;;;;1.83;0.90;;;18.30;99.90;;;;;;5011352;28;20026;-45
2023/11/16 00:07:33;;;;;;;2.25;0.70;;;18.30;99.90;;;;;;5012052;28;20030;-44
2023/11/16 00:09:59;;;;;;;1.70;0.80;;;18.30;99.90;;;;;;5010124;28;20037;-44
2023/11/16 00:12:24;;;;;;;1.50;0.80;;;18.30;99.90;;;;;;5012299;28;20030;-44
2023/11/16 00:14:50;;;;;;;2.88;0.73;;;18.30;99.90;;;;;;5012073;28;20383;-44
2023/11/16 00:17:16;;;;;;;1.65;0.80;;;18.30;99.90;;;;;;5012095;28;20022;-43
2023/11/16 00:19:42;;;;;;;1.00;0.60;;;18.30;99.90;;;;;;5011132;28;20022;-45
2023/11/16 00:22:09;;;;;;;1.40;0.70;;;18.30;99.90;;;;;;5011384;28;20033;-45
2023/11/16 00:24:35;;;;;;;2.08;0.80;;;18.30;99.90;;;;;;5012055;28;20109;-44
2023/11/16 00:27:01;;;;;;;1.08;0.70;;;18.30;99.90;;;;;;5011653;28;20117;-45
2023/11/16 00:29:26;;;;;;;1.50;0.60;;;18.30;99.90;;;;;;5011525;28;20056;-43
2023/11/16 00:31:53;;;;;;;1.90;0.70;;;18.30;99.90;;;;;;5013428;28;20449;-45
2023/11/16 00:34:19;;;;;;;1.45;0.70;;;18.30;99.90;;;;;;5015164;28;20033;-43
2023/11/16 00:36:45;;;;;;;1.02;0.63;;;18.30;99.90;;;;;;5014905;28;20092;-41
2023/11/16 00:39:12;;;;;;;1.27;0.60;;;18.20;99.90;;;;;;5015148;28;20033;-45
2023/11/16 00:41:38;;;;;;;1.63;0.68;;;18.30;99.90;;;;;;5014523;28;20033;-42
2023/11/16 00:44:05;;;;;;;1.42;0.60;;;18.30;99.90;;;;;;5015362;28;20464;-45
2023/11/16 00:46:32;;;;;;;1.65;0.70;;;18.20;99.90;;;;;;5015888;28;20464;-45
2023/11/16 00:48:58;;;;;;;1.00;0.55;;;18.20;99.90;;;;;;5015847;28;20068;-44
2023/11/16 00:51:24;;;;;;;2.72;0.80;;;18.20;99.90;;;;;;5015748;28;20033;-45
2023/11/16 00:53:51;;;;;;;2.65;0.70;;;18.30;99.90;;;;;;5015134;28;20390;-45
2023/11/16 00:56:18;;;;;;;2.92;1.00;;;18.30;99.90;;;;;;5015344;28;20026;-45
2023/11/16 00:58:47;;;;;;;2.40;0.70;;;18.30;99.90;;;;;;5015941;28;20507;-44
2023/11/16 01:01:13;;;;;;;2.28;0.82;;;18.20;99.90;;;;;;5015249;28;20088;-42
2023/11/16 01:03:41;;;;;;;2.38;0.60;;;18.20;99.90;;;;;;5016829;28;20026;-44
2023/11/16 01:06:07;;;;;;;1.13;0.50;;;18.30;99.90;;;;;;5015021;28;20037;-45
2023/11/16 01:08:37;;;;;;;1.10;0.57;;;18.30;99.90;;;;;;5014798;28;20050;-43
2023/11/16 01:11:04;;;;;;;1.13;0.50;;;18.30;99.90;;;;;;5013364;28;20069;-40
2023/11/16 01:13:38;;;;;;;1.27;0.63;;;18.20;99.90;;;;;;5014586;28;20483;-43
2023/11/16 01:16:09;;;;;;;2.30;0.70;;;18.20;99.90;;;;;;5014549;28;20033;-45
2023/11/16 01:18:37;;;;;;;1.67;0.55;;;18.20;99.90;;;;;;5014879;28;20120;-44
2023/11/16 01:21:08;;;;;;;1.55;0.73;;;18.20;99.90;;;;;;5014233;28;20061;-45
2023/11/16 01:23:35;;;;;;;2.75;0.60;;;18.20;99.90;;;;;;5014243;28;20571;-43
2023/11/16 01:26:03;;;;;;;1.58;0.70;;;18.20;99.90;;;;;;5014584;28;20030;-45
2023/11/16 01:28:31;;;;;;;1.95;0.65;;;18.20;99.90;;;;;;5014743;28;20037;-44
2023/11/16 01:30:56;;;;;;;1.40;0.50;;;18.20;99.90;;;;;;5013990;28;20033;-44
2023/11/16 01:33:22;;;;;;;1.30;0.60;;;18.20;99.90;;;;;;5014543;28;20033;-45
2023/11/16 01:35:50;;;;;;;3.00;0.90;;;18.20;99.90;;;;;;5013823;28;20026;-44
2023/11/16 01:38:16;;;;;;;1.50;0.50;;;18.20;99.90;;;;;;5014186;28;20498;-44
2023/11/16 01:40:42;;;;;;;1.90;0.60;;;18.20;99.90;;;;;;5013908;28;20201;-44
2023/11/16 01:43:08;;;;;;;1.70;0.63;;;18.20;99.90;;;;;;5012725;28;20022;-41
2023/11/16 01:45:35;;;;;;;1.92;0.75;;;18.20;99.90;;;;;;5013360;28;20109;-45
2023/11/16 01:48:06;;;;;;;1.27;0.60;;;18.20;99.90;;;;;;5013979;28;20499;-44
2023/11/16 01:50:34;;;;;;;1.65;0.60;;;18.20;99.90;;;;;;5014391;28;20030;-44
2023/11/16 01:53:06;;;;;;;2.58;0.70;;;18.20;99.90;;;;;;5013709;28;20040;-42
2023/11/16 01:55:34;;;;;;;1.35;0.70;;;18.20;99.90;;;;;;5013742;28;20053;-43
2023/11/16 01:58:10;;;;;;;1.38;0.57;;;18.20;99.90;;;;;;5013912;28;20020;-45
2023/11/16 02:00:37;;;;;;;1.85;0.60;;;18.20;99.90;;;;;;5013543;28;20099;-42
2023/11/16 02:03:04;;;;;;;0.93;0.60;;;18.10;99.90;;;;;;5013422;28;20057;-44
2023/11/16 02:05:35;;;;;;;1.50;0.50;;;18.20;99.90;;;;;;5013294;28;20033;-45
2023/11/16 02:08:08;;;;;;;4.05;0.77;;;18.10;99.90;;;;;;5013350;28;20022;-41
2023/11/16 02:10:34;;;;;;;2.40;0.73;;;18.10;99.90;;;;;;5013355;28;20036;-45
2023/11/16 02:13:00;;;;;;;1.05;0.55;;;18.20;99.90;;;;;;5014492;28;20041;-45
2023/11/16 02:15:31;;;;;;;2.33;0.52;;;18.20;99.90;;;;;;5013768;28;20052;-43
2023/11/16 02:18:01;;;;;;;2.05;0.73;;;18.20;99.90;;;;;;5014115;28;20084;-43
2023/11/16 02:20:29;;;;;;;1.13;0.47;;;18.20;99.90;;;;;;5013366;28;20040;-46
2023/11/16 02:22:55;;;;;;;1.13;0.50;;;18.20;99.90;;;;;;5013856;28;20026;-44
2023/11/16 02:25:22;;;;;;;0.60;0.30;;;18.20;99.90;;;;;;5013198;28;20108;-44
2023/11/16 02:27:48;;;;;;;1.48;0.70;;;18.10;99.90;;;;;;5013075;28;20030;-44
2023/11/16 02:30:14;;;;;;;1.45;0.50;;;18.10;99.90;;;;;;5012827;28;20746;-44
2023/11/16 02:32:40;;;;;;;1.88;0.57;;;18.10;99.90;;;;;;5013438;28;20048;-46
2023/11/16 02:35:06;;;;;;;2.63;0.68;;;18.10;99.90;;;;;;5013102;28;20480;-44
2023/11/16 02:37:31;;;;;;;1.17;0.60;;;18.10;99.90;;;;;;5012634;28;20068;-41
2023/11/16 02:39:59;;;;;;;1.73;0.57;;;18.10;99.90;;;;;;5013392;28;20053;-42
2023/11/16 02:42:25;;;;;;;1.58;0.63;;;18.10;99.90;;;;;;5012694;28;20387;-44
2023/11/16 02:44:57;;;;;;;1.23;0.43;;;18.10;99.90;;;;;;5013199;28;20112;-45
2023/11/16 02:47:30;;;;;;;1.00;0.50;;;18.10;99.90;;;;;;5013123;28;20025;-43
2023/11/16 02:49:56;;;;;;;1.73;0.65;;;18.10;99.90;;;;;;5013100;28;20068;-45
2023/11/16 02:52:22;;;;;;;1.52;0.40;;;18.10;99.90;;;;;;5012508;28;20492;-41
2023/11/16 02:54:48;;;;;;;0.88;0.40;;;18.10;99.90;;;;;;5012532;28;20038;-45
2023/11/16 02:57:14;;;;;;;1.23;0.57;;;18.10;99.90;;;;;;5012746;28;20071;-42
2023/11/16 02:59:40;;;;;;;1.10;0.57;;;18.10;99.90;;;;;;5012046;28;20484;-44
2023/11/16 03:02:06;;;;;;;0.70;0.38;;;18.10;99.90;;;;;;5013651;28;20022;-45
2023/11/16 03:04:33;;;;;;;1.83;0.70;;;18.10;99.90;;;;;;5012696;28;20025;-45
2023/11/16 03:06:59;;;;;;;0.98;0.45;;;18.10;99.90;;;;;;5012465;28;20557;-44
2023/11/16 03:09:24;;;;;;;1.08;0.50;;;18.10;99.90;;;;;;5012564;28;20025;-45
2023/11/16 03:11:50;;;;;;;1.30;0.57;;;18.10;99.90;;;;;;5012446;28;20049;-42
2023/11/16 03:14:15;;;;;;;1.23;0.50;;;18.10;99.90;;;;;;5011980;28;20026;-44
2023/11/16 03:16:49;;;;;;;3.33;0.70;;;18.10;99.90;;;;;;5012311;28;20030;-42
2023/11/16 03:19:16;;;;;;;1.05;0.50;;;18.10;99.90;;;;;;5012595;28;20049;-43
2023/11/16 03:21:42;;;;;;;1.00;0.50;;;18.00;99.90;;;;;;5013058;28;20062;-44
2023/11/16 03:24:08;;;;;;;1.30;0.30;;;18.10;99.90;;;;;;5012180;28;20526;-42
2023/11/16 03:26:34;;;;;;;1.13;0.45;;;18.10;99.90;;;;;;5012642;28;20064;-45
2023/11/16 03:29:00;;;;;;;1.17;0.60;;;18.10;99.90;;;;;;5012396;28;20069;-45
2023/11/16 03:31:25;;;;;;;1.42;0.57;;;18.10;99.90;;;;;;5012213;28;20045;-45
2023/11/16 03:33:51;;;;;;;0.88;0.57;;;18.10;99.90;;;;;;5012217;28;20033;-44
2023/11/16 03:36:17;;;;;;;0.63;0.40;;;18.00;99.90;;;;;;5012653;28;20033;-45
2023/11/16 03:38:43;;;;;;;1.40;0.50;;;18.00;99.90;;;;;;5011512;28;20117;-45
2023/11/16 03:41:09;;;;;;;0.90;0.50;;;18.00;99.90;;;;;;5011662;28;20491;-45
2023/11/16 03:43:35;;;;;;;4.47;0.82;;;18.00;99.90;;;;;;5011706;28;20021;-42
2023/11/16 03:46:01;;;;;;;1.40;0.60;;;18.00;99.90;;;;;;5011727;28;20547;-44
2023/11/16 03:48:27;;;;;;;1.38;0.47;;;18.00;99.90;;;;;;5012713;28;20025;-44
2023/11/16 03:50:52;;;;;;;4.18;0.60;;;18.00;99.90;;;;;;5011880;28;20033;-45
2023/11/16 03:53:18;;;;;;;2.50;0.57;;;18.00;99.90;;;;;;5012453;28;20395;-44
2023/11/16 03:55:44;;;;;;;6.28;0.60;;;18.00;99.90;;;;;;5011810;28;20471;-43
2023/11/16 03:58:10;;;;;;;3.45;0.60;;;18.00;99.90;;;;;;5011381;28;20471;-44
2023/11/16 04:00:35;;;;;;;1.35;0.50;;;18.00;99.90;;;;;;5011517;28;20022;-45
2023/11/16 04:03:03;;;;;;;1.00;0.50;;;18.00;99.90;;;;;;5011846;28;20101;-44
2023/11/16 04:05:30;;;;;;;0.88;0.40;;;18.00;99.90;;;;;;5011698;28;20029;-44
2023/11/16 04:07:56;;;;;;;1.95;0.60;;;18.00;99.90;;;;;;5015174;28;20022;-44
2023/11/16 04:10:22;;;;;;;0.30;0.20;;;18.00;99.90;;;;;;5016336;28;20156;-42
2023/11/16 04:12:48;;;;;;;0.93;0.40;;;18.00;99.90;;;;;;5015799;28;20119;-45
2023/11/16 04:15:14;;;;;;;2.30;0.57;;;18.00;99.90;;;;;;5015368;28;20503;-44
2023/11/16 04:17:40;;;;;;;1.08;0.40;;;18.00;99.90;;;;;;5015348;28;20018;-42
2023/11/16 04:20:08;;;;;;;0.70;0.40;;;18.00;99.90;;;;;;5015440;28;20472;-44
2023/11/16 04:22:39;;;;;;;1.73;0.57;;;18.00;99.90;;;;;;5015364;28;20033;-45
2023/11/16 04:25:22;;;;;;;1.05;0.35;;;18.00;99.90;;;;;;5015977;28;20018;-45
2023/11/16 04:27:49;;;;;;;0.40;0.22;;;18.00;99.90;;;;;;5016584;28;20101;-45
2023/11/16 04:30:16;;;;;;;1.00;0.45;;;18.00;99.90;;;;;;5016396;28;20058;-45
2023/11/16 04:32:42;;;;;;;1.33;0.40;;;18.00;99.90;;;;;;5015824;28;20372;-45
2023/11/16 04:35:09;;;;;;;0.65;0.35;;;18.00;99.90;;;;;;5015358;28;20071;-45
2023/11/16 04:37:37;;;;;;;1.02;0.47;;;18.00;99.90;;;;;;5015406;28;20034;-45
2023/11/16 04:40:07;;;;;;;1.00;0.30;;;18.00;99.90;;;;;;5015190;28;20025;-44
2023/11/16 04:42:33;;;;;;;1.65;0.60;;;18.00;99.90;;;;;;5016257;28;20037;-44
2023/11/16 04:44:58;;;;;;;1.05;0.50;;;18.00;99.90;;;;;;5015711;28;20026;-41
2023/11/16 04:47:24;;;;;;;1.35;0.40;;;18.00;99.90;;;;;;5014934;28;20113;-41
2023/11/16 04:49:50;;;;;;;0.55;0.35;;;18.00;99.90;;;;;;5014695;28;20514;-42
2023/11/16 04:52:16;;;;;;;0.85;0.45;;;18.00;99.90;;;;;;5014781;28;20105;-45
2023/11/16 04:54:41;;;;;;;1.20;0.45;;;18.00;99.90;;;;;;5014935;28;20033;-43
2023/11/16 04:57:07;;;;;;;2.67;0.47;;;18.00;99.90;;;;;;5014587;28;20018;-46
2023/11/16 04:59:33;;;;;;;2.17;0.50;;;18.00;99.90;;;;;;5014958;28;20029;-44
2023/11/16 05:01:58;;;;;;;0.80;0.40;;;18.00;99.90;;;;;;5014589;28;20024;-45
2023/11/16 05:04:24;;;;;;;1.58;0.60;;;17.90;99.90;;;;;;5015217;28;20093;-43
2023/11/16 05:06:50;;;;;;;0.60;0.30;;;18.00;99.90;;;;;;5015144;28;20383;-43
2023/11/16 05:09:15;;;;;;;1.55;0.52;;;18.00;99.90;;;;;;5014862;28;20034;-44
2023/11/16 05:11:41;;;;;;;0.82;0.50;;;17.90;99.90;;;;;;5014578;28;20069;-44
2023/11/16 05:14:06;;;;;;;1.50;0.47;;;18.00;99.90;;;;;;5014391;28;20112;-45
2023/11/16 05:16:32;;;;;;;1.00;0.45;;;17.90;99.90;;;;;;5014136;28;20076;-42
2023/11/16 05:18:58;;;;;;;1.83;0.60;;;17.90;99.90;;;;;;5013963;28;20029;-43
2023/11/16 05:21:23;;;;;;;1.17;0.60;;;17.90;99.90;;;;;;5014859;28;20069;-45
2023/11/16 05:23:49;;;;;;;1.55;0.40;;;17.90;99.90;;;;;;5014317;28;20480;-44
2023/11/16 05:26:17;;;;;;;0.80;0.45;;;17.90;99.90;;;;;;5014308;28;20026;-44
2023/11/16 05:28:43;;;;;;;1.15;0.40;;;17.90;99.90;;;;;;5013994;28;20033;-41
2023/11/16 05:31:09;;;;;;;2.70;0.40;;;17.90;99.90;;;;;;5014231;28;20030;-45
2023/11/16 05:33:34;;;;;;;1.17;0.45;;;17.90;99.90;;;;;;5014062;28;20030;-44
2023/11/16 05:36:00;;;;;;;1.08;0.50;;;17.90;99.90;;;;;;5014419;28;20041;-41
2023/11/16 05:38:26;;;;;;;0.80;0.50;;;17.90;99.90;;;;;;5013616;28;20061;-45
2023/11/16 05:40:52;;;;;;;3.80;0.60;;;17.90;99.90;;;;;;5013825;28;20061;-44
2023/11/16 05:43:19;;;;;;;2.63;0.60;;;17.90;99.90;;;;;;5013814;28;20105;-45
2023/11/16 05:45:45;;;;;;;1.60;0.50;;;17.90;99.90;;;;;;5013712;28;20068;-41
2023/11/16 05:48:11;;;;;;;1.38;0.57;;;17.90;99.90;;;;;;5013477;28;20040;-45
2023/11/16 05:50:37;;;;;;;0.75;0.50;;;17.90;99.90;;;;;;5013879;28;20488;-44
2023/11/16 05:53:03;;;;;;;0.93;0.45;;;17.90;99.90;;;;;;5013635;28;20041;-42
2023/11/16 05:55:33;;;;;;;1.65;0.60;;;17.90;99.90;;;;;;5013643;28;20465;-43
2023/11/16 05:57:58;;;;;;;1.48;0.60;;;17.90;99.90;;;;;;5014851;28;20348;-45
2023/11/16 06:00:24;;;;;;;0.88;0.40;;;17.90;99.90;;;;;;5013841;28;20522;-45
2023/11/16 06:02:50;;;;;;;0.77;0.45;;;17.90;99.90;;;;;;5014672;28;20388;-44
2023/11/16 06:05:15;;;;;;;1.77;0.60;;;17.90;99.90;;;;;;5013954;28;20109;-45
2023/11/16 06:07:41;;;;;;;1.83;0.70;;;17.90;99.90;;;;;;5013709;28;20057;-44
2023/11/16 06:10:10;;;;;;;0.80;0.40;;;17.90;99.90;;;;;;5013392;28;20108;-45
2023/11/16 06:12:37;;;;;;;0.93;0.45;;;17.90;99.90;;;;;;5013273;28;20030;-45
2023/11/16 06:15:03;;;;;;;0.60;0.40;;;17.90;99.90;;;;;;5013325;28;20026;-44
2023/11/16 06:17:28;;;;;;;1.15;0.40;;;17.90;99.90;;;;;;5013194;28;20033;-43
2023/11/16 06:19:54;;;;;;;0.70;0.40;;;17.90;99.90;;;;;;5014136;28;20034;-44
2023/11/16 06:22:20;;;;;;;1.30;0.60;;;17.90;99.90;;;;;;5013448;28;20034;-43
2023/11/16 06:24:46;;;;;;;1.40;0.40;;;17.90;99.90;;;;;;5013411;28;20026;-41
2023/11/16 06:27:12;;;;;;;1.95;0.52;;;17.80;99.90;;;;;;5012920;28;20028;-45
2023/11/16 06:29:37;;;;;;;1.95;0.90;;;17.90;99.90;;;;;;5012518;28;20480;-44
2023/11/16 06:32:05;;;;;;;2.90;1.30;;;17.90;99.90;;;;;;5014766;28;20068;-45
2023/11/16 06:34:31;;;;;;;1.70;1.05;;;17.90;99.90;;;;;;5012952;28;20087;-41
2023/11/16 06:36:58;;;;;;;1.75;0.73;;;17.90;99.90;;;;;;5012945;28;20022;-44
2023/11/16 06:39:24;;;;;;;1.88;0.80;;;17.90;99.90;;;;;;5012564;28;20084;-45
2023/11/16 06:41:49;;;;;;;1.58;0.80;;;17.80;99.90;;;;;;5014802;28;20107;-41
2023/11/16 06:44:18;;;;;;;1.70;0.65;;;17.90;99.90;;;;;;5012635;28;20025;-42
2023/11/16 06:46:44;;;;;;;2.08;0.80;;;17.90;99.90;;;;;;5012397;28;20395;-45
2023/11/16 06:49:10;;;;;;;2.05;0.93;;;17.80;99.90;;;;;;5012485;28;20022;-42
2023/11/16 06:51:36;;;;;;;1.70;0.68;;;17.80;99.90;;;;;;5013751;28;20426;-45
2023/11/16 06:54:05;;;;;;;3.08;1.10;;;17.80;99.90;;;;;;5012484;28;20026;-44
2023/11/16 06:56:33;;;;;;;1.95;0.90;;;17.80;99.90;;;;;;5012247;28;20030;-44
2023/11/16 06:59:03;;;;;;;1.77;0.98;;;17.80;99.90;;;;;;5012363;28;20026;-44
2023/11/16 07:01:29;;;;;;;2.00;0.98;;;17.90;99.90;;;;;;5012184;28;20088;-45
2023/11/16 07:03:55;;;;;;;2.95;0.75;;;17.80;99.90;;;;;;5012589;28;20022;-42
2023/11/16 07:06:21;;;;;;;1.73;0.82;;;17.80;99.90;;;;;;5012470;28;20030;-44
2023/11/16 07:08:47;;;;;;;1.35;0.80;;;17.90;99.90;;;;;;5012849;28;20499;-43
2023/11/16 07:11:12;;;;;;;2.65;0.90;;;17.80;99.90;;;;;;5012426;28;20060;-44
2023/11/16 07:13:38;;;;;;;2.22;1.00;;;17.90;99.90;;;;;;5012500;28;20061;-45
2023/11/16 07:16:04;;;;;;;2.33;1.10;;;17.90;99.90;;;;;;5012915;28;20475;-45
2023/11/16 07:18:30;;;;;;;2.42;1.10;;;17.90;99.90;;;;;;5012400;28;20037;-45
2023/11/16 07:20:58;;;;;;;2.47;0.90;;;17.90;99.90;;;;;;5012081;28;20026;-45
2023/11/16 07:23:24;;;;;;;2.17;0.75;;;17.80;99.90;;;;;;5012147;28;20030;-44
2023/11/16 07:25:49;;;;;;;2.47;0.88;;;17.80;99.90;;;;;;5013268;28;20028;-44
2023/11/16 07:28:15;;;;;;;1.83;0.60;;;17.80;99.90;;;;;;5012195;28;20160;-40
2023/11/16 07:30:43;;;;;;;3.00;0.80;;;17.80;99.90;;;;;;5012732;28;20109;-44
2023/11/16 07:33:11;;;;;;;1.75;0.70;;;17.80;99.90;;;;;;5012555;28;20033;-45
2023/11/16 07:35:37;;;;;;;2.42;0.80;;;17.90;99.90;;;;;;5011835;28;20107;-44
2023/11/16 07:38:04;;;;;;;2.45;0.77;;;17.80;99.90;;;;;;5011876;28;20072;-45
2023/11/16 07:40:29;;;;;;;2.00;0.90;;;17.80;99.90;;;;;;5011511;28;20030;-42
2023/11/16 07:42:55;;;;;;;1.38;0.70;;;17.90;99.90;;;;;;5011806;28;20029;-45
2023/11/16 07:45:21;;;;;;;1.73;0.73;;;17.80;99.90;;;;;;5011555;28;20491;-45
2023/11/16 07:47:47;;;;;;;2.17;0.93;;;17.80;99.90;;;;;;5011727;28;20040;-42
2023/11/16 07:50:13;;;;;;;1.40;0.75;;;17.90;99.90;;;;;;5011597;28;20502;-45
2023/11/16 07:52:44;;;;;;;1.88;0.95;;;17.80;99.90;;;;;;5012269;28;20117;-44
2023/11/16 07:55:15;;;;;;;1.77;1.08;;;17.90;99.90;;;;;;5011769;28;20034;-45
2023/11/16 07:57:47;;;;;;;2.63;1.20;;;17.80;99.90;;;;;;5011424;28;20022;-46
2023/11/16 08:00:30;;;;;;;1.70;1.27;;;17.90;99.90;;;;;;5011600;28;20029;-41
2023/11/16 08:03:59;;;;;;;3.38;1.20;;;17.80;99.90;;;;;;5011827;28;20022;-43
2023/11/16 08:05:54;;;;;;;3.45;1.10;;;17.90;99.90;;;;;;5006855;28;20033;-45
2023/11/16 08:08:20;;;;;;;1.75;1.10;;;17.80;99.90;;;;;;5011497;28;20032;-45
2023/11/16 08:10:49;;;;;;;1.92;0.98;;;17.80;99.90;;;;;;5011521;28;20026;-42
2023/11/16 08:13:18;;;;;;;2.05;1.25;;;17.80;99.90;;;;;;5012109;28;20159;-45
2023/11/16 08:15:52;;;;;;;2.05;1.13;;;17.80;99.90;;;;;;5011445;28;20026;-44
2023/11/16 08:18:21;;;;;;;2.42;1.20;;;17.90;99.90;;;;;;5011669;28;20022;-45
2023/11/16 08:20:47;;;;;;;1.80;1.20;;;17.90;99.90;;;;;;5011789;28;20041;-44
2023/11/16 08:23:13;;;;;;;3.00;1.30;;;17.80;99.90;;;;;;5011626;28;20022;-44
2023/11/16 08:25:39;;;;;;;1.85;1.02;;;17.90;99.90;;;;;;5012362;28;20034;-43
2023/11/16 08:28:08;;;;;;;1.20;0.90;;;17.90;99.90;;;;;;5012326;28;20026;-44
2023/11/16 08:30:34;;;;;;;2.42;1.20;;;17.80;99.90;;;;;;5011709;28;20479;-45
2023/11/16 08:33:00;;;;;;;2.28;1.05;;;17.80;99.90;;;;;;5011254;28;20049;-40
2023/11/16 08:35:26;;;;;;;2.42;1.23;;;17.90;99.90;;;;;;5010918;28;20108;-43
2023/11/16 08:37:54;;;;;;;2.03;1.30;;;17.90;99.90;;;;;;5011022;28;20133;-45
2023/11/16 08:40:20;;;;;;;2.90;1.25;;;17.90;99.90;;;;;;5011202;28;20022;-43
2023/11/16 08:42:47;;;;;;;3.30;1.25;;;17.90;99.90;;;;;;5011756;28;20025;-45
2023/11/16 08:45:18;;;;;;;2.15;1.00;;;17.90;99.90;;;;;;5011798;28;20041;-45
2023/11/16 08:47:48;;;;;;;1.38;0.95;;;17.90;99.90;;;;;;5011699;28;20103;-43
2023/11/16 08:50:16;;;;;;;1.88;0.98;;;17.90;99.90;;;;;;5011165;28;20148;-45
2023/11/16 08:52:45;;;;;;;1.50;1.00;;;17.90;99.90;;;;;;5012854;28;20057;-44
2023/11/16 08:55:12;;;;;;;1.70;1.02;;;17.90;99.90;;;;;;5015007;28;20026;-42
2023/11/16 08:57:41;;;;;;;3.88;1.17;;;17.90;99.90;;;;;;5015422;28;20108;-41
2023/11/16 09:02:54;;;;;;;2.33;0.93;;;18.00;99.90;;;;;;5015373;28;20506;-45
2023/11/16 09:05:21;;;;;;;2.15;0.85;;;17.90;99.90;;;;;;5014771;28;20029;-45
2023/11/16 09:07:46;;;;;;;1.63;1.00;;;17.90;99.90;;;;;;5015053;28;20096;-42
2023/11/16 09:10:14;;;;;;;2.08;1.10;;;18.00;99.90;;;;;;5014506;28;20480;-45
2023/11/16 09:12:43;;;;;;;1.58;0.93;;;18.00;99.90;;;;;;5015089;28;20034;-45
2023/11/16 09:15:10;;;;;;;1.65;1.00;;;18.00;99.90;;;;;;5014496;28;20030;-45
2023/11/16 09:17:37;;;;;;;2.22;1.02;;;18.00;99.90;;;;;;5014484;28;20029;-45
2023/11/16 09:20:10;;;;;;;2.03;1.13;;;18.00;99.90;;;;;;5014935;28;20168;-43
2023/11/16 09:22:38;;;;;;;1.67;1.20;;;18.00;99.90;;;;;;5014786;28;20025;-44
2023/11/16 09:25:15;;;;;;;1.45;1.00;;;18.00;99.90;;;;;;5014505;28;20104;-45
2023/11/16 09:27:44;;;;;;;1.88;0.80;;;18.00;99.90;;;;;;5014022;28;20022;-44
2023/11/16 09:30:14;;;;;;;2.83;1.45;;;18.00;99.90;;;;;;5014680;28;20030;-42
2023/11/16 09:32:44;;;;;;;1.95;1.08;;;18.00;99.90;;;;;;5014518;28;20030;-44
2023/11/16 09:35:14;;;;;;;1.75;1.10;;;18.00;99.90;;;;;;5014183;28;20029;-45
2023/11/16 09:37:43;;;;;;;2.03;1.15;;;18.00;99.90;;;;;;5013805;28;20108;-45
2023/11/16 09:40:13;;;;;;;1.58;1.02;;;18.00;99.90;;;;;;5013902;28;20029;-46
2023/11/16 09:42:43;;;;;;;1.85;1.30;;;18.00;99.90;;;;;;5013802;28;20091;-44
2023/11/16 09:45:09;;;;;;;2.63;0.90;;;18.00;99.90;;;;;;5013902;28;20114;-46
2023/11/16 09:47:43;;;;;;;4.28;1.30;;;18.00;99.90;;;;;;5013569;28;20030;-46
2023/11/16 09:50:09;;;;;;;3.33;1.55;;;18.00;99.90;;;;;;5013775;28;20072;-46
2023/11/16 09:52:39;;;;;;;6.10;1.45;;;17.90;99.90;;;;;;5013696;28;20069;-44
2023/11/16 09:55:09;;;;;;;3.65;1.33;;;17.90;99.90;;;;;;5013643;28;20033;-45
2023/11/16 09:57:37;;;;;;;2.88;1.30;;;17.80;99.90;;;;;;5013981;28;20036;-44
2023/11/16 10:00:14;;;;;;;3.85;1.08;;;17.90;99.90;;;;;;5013808;28;20032;-45
2023/11/16 10:02:45;;;;;;;5.22;1.48;;;17.80;99.90;;;;;;5013467;28;20033;-45
2023/11/16 10:05:22;;;;;;;2.38;1.00;;;17.80;99.90;;;;;;5012376;28;20022;-45
2023/11/16 10:07:51;;;;;;;3.45;1.30;;;17.80;99.90;;;;;;5013619;28;20026;-44
2023/11/16 10:10:18;;;;;;;2.88;1.02;;;17.80;99.90;;;;;;5013488;28;20076;-44
2023/11/16 10:12:50;;;;;;;4.05;1.27;;;17.90;99.90;;;;;;5013362;28;20026;-44
2023/11/16 10:15:21;;;;;;;2.67;1.10;;;17.80;99.90;;;;;;5013135;28;20484;-44
2023/11/16 10:17:48;;;;;;;2.75;1.20;;;17.80;99.90;;;;;;5013355;28;20434;-44
2023/11/16 10:20:16;;;;;;;5.13;1.17;;;17.90;99.90;;;;;;5013255;28;20026;-45
2023/11/16 10:22:44;;;;;;;2.33;1.05;;;17.90;99.90;;;;;;5013089;28;20028;-46
2023/11/16 10:25:11;;;;;;;3.22;0.95;;;17.90;99.90;;;;;;5013034;28;20026;-44
2023/11/16 10:27:37;;;;;;;3.58;1.30;;;17.90;99.90;;;;;;5012910;28;20026;-45
2023/11/16 10:30:03;;;;;;;3.03;1.23;;;17.90;99.90;;;;;;5012887;28;20415;-46
2023/11/16 10:32:29;;;;;;;4.93;1.17;;;17.90;99.90;;;;;;5013394;28;20034;-45
2023/11/16 10:34:56;;;;;;;4.65;1.30;;;17.90;99.90;;;;;;5013283;28;20037;-44
2023/11/16 10:37:24;;;;;;;2.50;1.05;;;17.90;99.90;;;;;;5013466;28;20499;-45
2023/11/16 10:39:51;;;;;;;2.55;1.10;;;17.90;99.90;;;;;;5013469;28;20541;-44
2023/11/16 10:42:18;;;;;;;2.85;1.02;;;17.90;99.90;;;;;;5012926;28;20026;-43
2023/11/16 10:44:47;;;;;;;3.40;1.02;;;17.90;99.90;;;;;;5013297;28;20022;-43
2023/11/16 10:47:14;;;;;;;3.75;1.25;;;17.90;99.90;;;;;;5012748;28;20022;-44
2023/11/16 10:49:39;;;;;;;2.53;0.90;;;17.90;99.90;;;;;;5013257;28;20244;-44
2023/11/16 10:52:08;;;;;;;2.58;0.90;;;17.90;99.90;;;;;;5013006;28;20025;-44
2023/11/16 10:54:43;;;;;;;2.00;0.90;;;17.90;99.90;;;;;;5012561;28;20057;-44
2023/11/16 10:57:13;;;;;;;1.98;1.00;;;17.90;99.90;;;;;;5012335;28;20380;-44
2023/11/16 10:59:42;;;;;;;2.85;1.08;;;17.90;99.90;;;;;;5013100;28;20149;-46
2023/11/16 11:02:10;;;;;;;2.35;1.20;;;17.90;99.90;;;;;;5012400;28;20022;-45
2023/11/16 11:04:36;;;;;;;3.08;1.10;;;17.90;99.90;;;;;;5012321;28;20026;-43
2023/11/16 11:07:04;;;;;;;1.83;0.90;;;17.90;99.90;;;;;;5013024;28;20029;-45
2023/11/16 11:09:44;;;;;;;2.75;1.00;;;17.90;99.90;;;;;;5012193;28;20022;-44
2023/11/16 11:12:13;;;;;;;3.70;1.00;;;17.90;99.90;;;;;;5012629;28;20029;-45
2023/11/16 11:14:52;;;;;;;2.25;1.08;;;17.90;99.90;;;;;;5012309;28;20557;-44
2023/11/16 11:17:27;;;;;;;2.72;1.00;;;18.00;99.90;;;;;;5011992;28;20480;-45
2023/11/16 11:19:56;;;;;;;1.67;0.70;;;18.00;99.90;;;;;;5012659;28;20022;-43
2023/11/16 11:22:27;;;;;;;1.75;1.00;;;17.90;99.90;;;;;;5012077;28;20479;-45
2023/11/16 11:24:54;;;;;;;2.97;0.95;;;18.00;99.90;;;;;;5012917;28;20443;-44
2023/11/16 11:27:25;;;;;;;3.58;1.10;;;18.00;99.90;;;;;;5011888;28;20030;-46
2023/11/16 11:29:54;;;;;;;1.35;0.70;;;18.00;99.90;;;;;;5011883;28;20037;-44
2023/11/16 11:32:37;;;;;;;2.20;1.05;;;18.00;99.90;;;;;;5011840;28;20029;-43
2023/11/16 11:35:11;;;;;;;2.78;1.02;;;18.00;99.90;;;;;;5011737;28;20033;-48
2023/11/16 11:37:40;;;;;;;2.95;0.90;;;18.00;99.90;;;;;;5011565;28;20037;-44
2023/11/16 11:40:07;;;;;;;1.90;0.85;;;18.00;99.90;;;;;;5013289;28;20057;-44
2023/11/16 11:42:37;;;;;;;1.85;0.80;;;18.00;99.90;;;;;;5011930;28;20105;-44
2023/11/16 11:45:07;;;;;;;2.58;1.17;;;18.00;99.90;;;;;;5011510;28;20063;-44
2023/11/16 11:47:33;;;;;;;3.00;1.23;;;18.00;99.90;;;;;;5011543;28;20480;-45
2023/11/16 11:50:00;;;;;;;2.35;1.13;;;18.00;99.90;;;;;;5011800;28;20030;-45
2023/11/16 11:52:29;;;;;;;2.13;0.90;;;18.00;99.90;;;;;;5011629;28;20065;-42
2023/11/16 11:54:55;;;;;;;1.88;0.75;;;18.00;99.90;;;;;;5011587;28;20033;-44
2023/11/16 11:57:21;;;;;;;2.03;1.00;;;18.10;99.90;;;;;;5026491;28;20068;-45
2023/11/16 11:59:49;;;;;;;1.90;1.05;;;18.00;99.90;;;;;;5011778;28;20022;-44
2023/11/16 12:02:17;;;;;;;2.08;1.00;;;18.10;99.90;;;;;;5012480;28;20455;-46
2023/11/16 12:04:43;;;;;;;3.25;1.05;;;18.10;99.90;;;;;;5011708;28;20022;-42
2023/11/16 12:07:10;;;;;;;1.52;0.80;;;18.00;99.90;;;;;;5010960;28;20100;-44
2023/11/16 12:09:44;;;;;;;1.63;0.55;;;18.00;99.90;;;;;;5012735;28;20018;-46
2023/11/16 12:12:11;;;;;;;2.67;0.98;;;18.00;99.90;;;;;;5011849;28;20109;-44
2023/11/16 12:14:46;;;;;;;1.48;0.80;;;18.00;99.90;;;;;;5011374;28;20539;-44
2023/11/16 12:17:13;;;;;;;2.13;0.98;;;18.10;99.90;;;;;;5011278;28;20026;-44
2023/11/16 12:19:40;;;;;;;1.50;0.80;;;18.00;99.90;;;;;;5011341;28;20033;-44
2023/11/16 12:22:10;;;;;;;2.83;1.10;;;18.10;99.90;;;;;;5014166;28;20045;-44
2023/11/16 12:24:36;;;;;;;1.95;1.00;;;18.00;99.90;;;;;;5011195;28;20029;-45
2023/11/16 12:27:04;;;;;;;3.63;1.00;;;18.00;99.90;;;;;;5012350;28;20048;-44
2023/11/16 12:29:30;;;;;;;2.38;0.90;;;18.00;99.90;;;;;;5015318;28;20042;-44
2023/11/16 12:31:56;;;;;;;2.08;0.98;;;18.00;99.90;;;;;;5015892;28;20410;-44
2023/11/16 12:34:26;;;;;;;2.88;1.00;;;18.00;99.90;;;;;;5015098;28;20029;-43
2023/11/16 12:36:55;;;;;;;2.90;0.98;;;18.00;99.90;;;;;;5014915;28;20022;-45
2023/11/16 12:39:27;;;;;;;3.75;1.50;;;18.00;99.90;;;;;;5024648;28;20029;-45
2023/11/16 12:41:54;;;;;;;6.32;2.05;;;18.10;99.90;;;;;;5030525;28;20541;-46
2023/11/16 12:44:20;;;;;;;5.28;2.10;;;18.00;99.90;;;;;;5025448;28;20109;-46
2023/11/16 12:46:46;;;;;;;4.28;1.80;;;18.00;99.90;;;;;;5014779;28;20120;-46
2023/11/16 12:49:13;;;;;;;4.95;1.65;;;18.00;99.90;;;;;;5015179;28;20149;-44
2023/11/16 12:51:40;;;;;;;5.82;1.63;;;17.90;99.90;;;;;;5014753;28;20030;-46